Terminal Aerodrome Forecast
Issued by NWS Wilmington, OH

Current Version | Previous Version | Graphics & Text | Print | Product List | Glossary On
Versions: 1 2 3 4 5 6 7 8 9 10 11 12 13 14 15 16 17 18
000
FTUS41 KILN 141739
TAFDAY
TAF
KDAY 141739Z 1418/1518 13007KT P6SM SCT250
     FM150100 VRB03KT P6SM SCT250
     FM151400 19010G17KT P6SM FEW025 OVC060=

USA.gov is the U.S. government's official web portal to all federal, state and local government web resources and services.